sensor_id;sensor_type;location;lat;lon;timestamp;pressure;altitude;pressure_sealevel;temperature;humidity
62508;BME280;48556;51.972;4.624;2022-08-16T00:00:05;100652.78;;;25.82;55.10
62508;BME280;48556;51.972;4.624;2022-08-16T00:02:39;100658.38;;;25.67;55.01
62508;BME280;48556;51.972;4.624;2022-08-16T00:05:10;100653.00;;;25.67;55.16
62508;BME280;48556;51.972;4.624;2022-08-16T00:07:36;100659.47;;;25.65;55.46
62508;BME280;48556;51.972;4.624;2022-08-16T00:10:03;100661.56;;;25.72;55.03
62508;BME280;48556;51.972;4.624;2022-08-16T00:12:30;100655.22;;;25.62;55.40
62508;BME280;48556;51.972;4.624;2022-08-16T00:14:59;100666.47;;;25.79;54.75
62508;BME280;48556;51.972;4.624;2022-08-16T00:17:26;100670.03;;;25.68;55.23
62508;BME280;48556;51.972;4.624;2022-08-16T00:19:53;100680.09;;;24.82;58.06
62508;BME280;48556;51.972;4.624;2022-08-16T00:22:19;100672.13;;;25.04;57.73
62508;BME280;48556;51.972;4.624;2022-08-16T00:24:45;100674.16;;;24.89;57.90
62508;BME280;48556;51.972;4.624;2022-08-16T00:27:10;100674.47;;;25.09;57.40
62508;BME280;48556;51.972;4.624;2022-08-16T00:29:36;100670.25;;;25.29;56.61
62508;BME280;48556;51.972;4.624;2022-08-16T00:32:04;100672.44;;;25.24;56.91
62508;BME280;48556;51.972;4.624;2022-08-16T00:34:30;100677.47;;;25.29;56.65
62508;BME280;48556;51.972;4.624;2022-08-16T00:36:56;100682.16;;;25.02;57.39
62508;BME280;48556;51.972;4.624;2022-08-16T00:39:21;100682.34;;;25.23;56.84
62508;BME280;48556;51.972;4.624;2022-08-16T00:41:49;100683.19;;;25.24;57.07
62508;BME280;48556;51.972;4.624;2022-08-16T00:44:18;100676.47;;;25.54;56.17
62508;BME280;48556;51.972;4.624;2022-08-16T00:46:55;100682.75;;;25.30;57.02
62508;BME280;48556;51.972;4.624;2022-08-16T00:49:23;100675.59;;;25.53;56.19
62508;BME280;48556;51.972;4.624;2022-08-16T00:51:51;100679.25;;;25.41;56.52
62508;BME280;48556;51.972;4.624;2022-08-16T00:54:17;100678.25;;;25.06;57.38
62508;BME280;48556;51.972;4.624;2022-08-16T00:56:46;100676.84;;;25.25;57.08
62508;BME280;48556;51.972;4.624;2022-08-16T00:59:21;100679.66;;;25.23;56.73
62508;BME280;48556;51.972;4.624;2022-08-16T01:01:47;100682.06;;;25.39;56.58
62508;BME280;48556;51.972;4.624;2022-08-16T01:04:17;100688.38;;;25.27;56.63
62508;BME280;48556;51.972;4.624;2022-08-16T01:06:44;100675.63;;;25.29;56.80
62508;BME280;48556;51.972;4.624;2022-08-16T01:09:10;100677.38;;;25.30;56.84
62508;BME280;48556;51.972;4.624;2022-08-16T01:11:37;100675.81;;;25.39;56.49
62508;BME280;48556;51.972;4.624;2022-08-16T03:52:56;100665.75;;;23.81;60.01
62508;BME280;48556;51.972;4.624;2022-08-16T03:55:23;100677.34;;;23.56;61.02
62508;BME280;48556;51.972;4.624;2022-08-16T03:57:51;100673.72;;;23.70;60.69
62508;BME280;48556;51.972;4.624;2022-08-16T04:00:26;100672.59;;;23.34;62.00
62508;BME280;48556;51.972;4.624;2022-08-16T04:02:55;100676.44;;;23.17;62.37
62508;BME280;48556;51.972;4.624;2022-08-16T04:05:21;100666.06;;;23.11;62.78
62508;BME280;48556;51.972;4.624;2022-08-16T04:07:47;100685.56;;;23.27;62.38
62508;BME280;48556;51.972;4.624;2022-08-16T04:10:16;100691.16;;;23.24;62.45
62508;BME280;48556;51.972;4.624;2022-08-16T04:12:44;100695.03;;;23.06;63.27
62508;BME280;48556;51.972;4.624;2022-08-16T04:15:12;100699.09;;;22.98;63.34
62508;BME280;48556;51.972;4.624;2022-08-16T04:17:39;100698.22;;;22.98;63.90
62508;BME280;48556;51.972;4.624;2022-08-16T04:20:05;100703.75;;;22.82;64.09
62508;BME280;48556;51.972;4.624;2022-08-16T04:22:35;100705.25;;;22.86;64.31
62508;BME280;48556;51.972;4.624;2022-08-16T04:25:03;100696.81;;;22.65;65.10
62508;BME280;48556;51.972;4.624;2022-08-16T04:27:28;100697.44;;;22.68;64.85
62508;BME280;48556;51.972;4.624;2022-08-16T04:29:54;100703.22;;;22.48;65.36
62508;BME280;48556;51.972;4.624;2022-08-16T04:32:23;100712.16;;;22.90;64.13
62508;BME280;48556;51.972;4.624;2022-08-16T04:34:48;100697.97;;;22.88;63.71
62508;BME280;48556;51.972;4.624;2022-08-16T04:37:14;100699.19;;;22.69;64.39
62508;BME280;48556;51.972;4.624;2022-08-16T04:39:39;100701.56;;;22.74;64.21
62508;BME280;48556;51.972;4.624;2022-08-16T04:42:08;100709.75;;;22.44;65.23
62508;BME280;48556;51.972;4.624;2022-08-16T04:44:33;100716.34;;;22.24;65.98
62508;BME280;48556;51.972;4.624;2022-08-16T04:46:59;100713.59;;;22.40;65.28
62508;BME280;48556;51.972;4.624;2022-08-16T04:49:25;100713.72;;;22.65;64.96
62508;BME280;48556;51.972;4.624;2022-08-16T04:51:51;100715.47;;;22.52;64.94
62508;BME280;48556;51.972;4.624;2022-08-16T04:54:17;100719.50;;;22.86;63.70
62508;BME280;48556;51.972;4.624;2022-08-16T04:56:45;100719.13;;;22.93;63.38
62508;BME280;48556;51.972;4.624;2022-08-16T04:59:13;100721.72;;;22.94;63.13
62508;BME280;48556;51.972;4.624;2022-08-16T05:01:39;100717.22;;;23.22;62.53
62508;BME280;48556;51.972;4.624;2022-08-16T05:04:04;100716.31;;;23.49;61.47
62508;BME280;48556;51.972;4.624;2022-08-16T05:06:31;100723.94;;;23.55;61.14
62508;BME280;48556;51.972;4.624;2022-08-16T05:08:57;100721.72;;;23.34;61.68
62508;BME280;48556;51.972;4.624;2022-08-16T05:11:23;100725.63;;;23.43;61.25
62508;BME280;48556;51.972;4.624;2022-08-16T05:13:51;100725.19;;;23.36;61.71
62508;BME280;48556;51.972;4.624;2022-08-16T05:16:27;100722.06;;;23.30;61.76
62508;BME280;48556;51.972;4.624;2022-08-16T05:18:56;100715.84;;;23.29;61.81
62508;BME280;48556;51.972;4.624;2022-08-16T05:21:30;100705.59;;;23.62;60.72
62508;BME280;48556;51.972;4.624;2022-08-16T05:24:01;100722.97;;;23.56;60.79
62508;BME280;48556;51.972;4.624;2022-08-16T05:26:30;100715.13;;;23.40;61.05
62508;BME280;48556;51.972;4.624;2022-08-16T05:28:57;100723.13;;;23.00;62.32
62508;BME280;48556;51.972;4.624;2022-08-16T05:31:28;100721.44;;;23.39;61.67
62508;BME280;48556;51.972;4.624;2022-08-16T05:33:54;100738.53;;;22.96;62.58
62508;BME280;48556;51.972;4.624;2022-08-16T05:36:22;100736.59;;;23.13;62.11
62508;BME280;48556;51.972;4.624;2022-08-16T05:38:50;100735.75;;;22.98;62.43
62508;BME280;48556;51.972;4.624;2022-08-16T05:44:35;100743.38;;;22.77;63.25
62508;BME280;48556;51.972;4.624;2022-08-16T05:47:01;100748.88;;;23.02;62.98
62508;BME280;48556;51.972;4.624;2022-08-16T05:49:30;100741.63;;;22.90;63.25
62508;BME280;48556;51.972;4.624;2022-08-16T05:52:12;100741.25;;;23.24;62.01
62508;BME280;48556;51.972;4.624;2022-08-16T05:54:41;100744.56;;;23.27;62.16
62508;BME280;48556;51.972;4.624;2022-08-16T05:57:17;100747.75;;;23.47;61.54
62508;BME280;48556;51.972;4.624;2022-08-16T05:59:49;100740.84;;;23.30;62.04
62508;BME280;48556;51.972;4.624;2022-08-16T06:02:29;100748.13;;;23.28;62.15
62508;BME280;48556;51.972;4.624;2022-08-16T06:04:57;100753.31;;;23.44;61.75
62508;BME280;48556;51.972;4.624;2022-08-16T06:07:28;100754.00;;;23.73;61.03
62508;BME280;48556;51.972;4.624;2022-08-16T06:09:59;100762.06;;;23.60;61.38
62508;BME280;48556;51.972;4.624;2022-08-16T06:12:35;100759.06;;;23.10;62.67
62508;BME280;48556;51.972;4.624;2022-08-16T06:18:37;100770.66;;;23.25;62.86
62508;BME280;48556;51.972;4.624;2022-08-16T06:21:03;100763.50;;;23.38;62.31
62508;BME280;48556;51.972;4.624;2022-08-16T06:23:30;100765.38;;;23.64;61.34
62508;BME280;48556;51.972;4.624;2022-08-16T06:25:59;100772.16;;;23.29;62.31
62508;BME280;48556;51.972;4.624;2022-08-16T06:28:25;100765.53;;;23.35;62.54
62508;BME280;48556;51.972;4.624;2022-08-16T06:31:48;100776.22;;;23.62;61.61
62508;BME280;48556;51.972;4.624;2022-08-16T06:34:13;100782.19;;;23.13;63.05
62508;BME280;48556;51.972;4.624;2022-08-16T06:36:41;100783.22;;;23.10;63.44
62508;BME280;48556;51.972;4.624;2022-08-16T06:39:07;100766.16;;;23.38;62.61
62508;BME280;48556;51.972;4.624;2022-08-16T06:41:33;100764.38;;;22.97;63.95
62508;BME280;48556;51.972;4.624;2022-08-16T06:44:18;100765.03;;;23.15;63.77
62508;BME280;48556;51.972;4.624;2022-08-16T06:47:06;100759.56;;;23.17;63.90
62508;BME280;48556;51.972;4.624;2022-08-16T06:49:45;100764.19;;;23.55;62.58
62508;BME280;48556;51.972;4.624;2022-08-16T06:52:18;100770.34;;;23.70;61.73
62508;BME280;48556;51.972;4.624;2022-08-16T06:54:45;100772.69;;;23.34;63.09
62508;BME280;48556;51.972;4.624;2022-08-16T06:57:15;100769.53;;;23.95;61.58
62508;BME280;48556;51.972;4.624;2022-08-16T06:59:45;100768.47;;;24.11;60.94
62508;BME280;48556;51.972;4.624;2022-08-16T07:02:19;100778.75;;;23.91;61.46
62508;BME280;48556;51.972;4.624;2022-08-16T07:12:16;100774.03;;;24.46;59.80
62508;BME280;48556;51.972;4.624;2022-08-16T07:14:47;100781.56;;;24.41;60.75
62508;BME280;48556;51.972;4.624;2022-08-16T07:17:16;100788.00;;;24.38;60.43
62508;BME280;48556;51.972;4.624;2022-08-16T07:19:47;100791.22;;;24.18;61.35
62508;BME280;48556;51.972;4.624;2022-08-16T07:22:24;100795.72;;;24.43;60.52
62508;BME280;48556;51.972;4.624;2022-08-16T07:24:54;100788.34;;;24.08;61.55
62508;BME280;48556;51.972;4.624;2022-08-16T09:54:44;100892.91;;;28.87;46.68
62508;BME280;48556;51.972;4.624;2022-08-16T10:04:25;100891.97;;;29.67;44.68
62508;BME280;48556;51.972;4.624;2022-08-16T10:07:18;100895.41;;;29.70;44.65
62508;BME280;48556;51.972;4.624;2022-08-16T10:09:50;100897.97;;;29.61;44.95
62508;BME280;48556;51.972;4.624;2022-08-16T10:12:18;100892.53;;;29.52;44.33
62508;BME280;48556;51.972;4.624;2022-08-16T10:39:57;100905.56;;;29.97;43.40
62508;BME280;48556;51.972;4.624;2022-08-16T10:45:59;100913.09;;;29.83;43.60
62508;BME280;48556;51.972;4.624;2022-08-16T14:37:45;100970.03;;;32.73;32.26
62508;BME280;48556;51.972;4.624;2022-08-16T14:40:19;100980.13;;;32.36;33.16
62508;BME280;48556;51.972;4.624;2022-08-16T14:43:30;100974.03;;;32.87;32.01
62508;BME280;48556;51.972;4.624;2022-08-16T14:46:27;100974.31;;;33.53;31.04
62508;BME280;48556;51.972;4.624;2022-08-16T14:49:53;100979.00;;;33.26;31.71
62508;BME280;48556;51.972;4.624;2022-08-16T14:52:57;100984.66;;;33.33;31.79
62508;BME280;48556;51.972;4.624;2022-08-16T14:55:32;100986.59;;;33.22;33.12
62508;BME280;48556;51.972;4.624;2022-08-16T15:01:23;100991.81;;;33.42;33.58
62508;BME280;48556;51.972;4.624;2022-08-16T15:04:54;100988.75;;;33.96;33.32
62508;BME280;48556;51.972;4.624;2022-08-16T15:11:04;100987.09;;;33.95;33.23
62508;BME280;48556;51.972;4.624;2022-08-16T15:40:13;100996.03;;;32.31;33.16
62508;BME280;48556;51.972;4.624;2022-08-16T15:42:52;100997.97;;;32.57;32.71
62508;BME280;48556;51.972;4.624;2022-08-16T15:45:48;101005.97;;;33.11;31.75
62508;BME280;48556;51.972;4.624;2022-08-16T15:55:16;101005.28;;;32.38;33.62
62508;BME280;48556;51.972;4.624;2022-08-16T15:58:10;101011.59;;;32.65;32.90
62508;BME280;48556;51.972;4.624;2022-08-16T16:00:37;101019.06;;;31.73;34.66
62508;BME280;48556;51.972;4.624;2022-08-16T16:06:04;101022.66;;;30.89;37.11
62508;BME280;48556;51.972;4.624;2022-08-16T16:08:35;101021.53;;;30.81;37.54
62508;BME280;48556;51.972;4.624;2022-08-16T16:15:07;101014.72;;;31.25;38.89
62508;BME280;48556;51.972;4.624;2022-08-16T16:18:24;101022.41;;;30.62;40.37
62508;BME280;48556;51.972;4.624;2022-08-16T16:21:25;101024.44;;;30.60;40.83
62508;BME280;48556;51.972;4.624;2022-08-16T16:23:54;101029.19;;;31.15;39.49
62508;BME280;48556;51.972;4.624;2022-08-16T16:29:43;101046.16;;;31.55;38.11
62508;BME280;48556;51.972;4.624;2022-08-16T16:32:50;101050.38;;;30.82;39.22
62508;BME280;48556;51.972;4.624;2022-08-16T16:35:33;101048.56;;;30.63;39.58
62508;BME280;48556;51.972;4.624;2022-08-16T16:45:08;101028.69;;;31.30;37.17
62508;BME280;48556;51.972;4.624;2022-08-16T16:47:40;101037.53;;;30.84;37.59
62508;BME280;48556;51.972;4.624;2022-08-16T16:50:09;101041.03;;;31.14;37.11
62508;BME280;48556;51.972;4.624;2022-08-16T16:52:43;101034.00;;;31.22;37.04
62508;BME280;48556;51.972;4.624;2022-08-16T17:05:30;101017.56;;;30.66;35.79
62508;BME280;48556;51.972;4.624;2022-08-16T17:08:07;101017.84;;;30.24;35.74
62508;BME280;48556;51.972;4.624;2022-08-16T17:17:30;101026.13;;;30.51;35.58
62508;BME280;48556;51.972;4.624;2022-08-16T17:31:00;101012.41;;;30.04;36.04
62508;BME280;48556;51.972;4.624;2022-08-16T17:34:02;101013.28;;;30.14;35.70
62508;BME280;48556;51.972;4.624;2022-08-16T17:44:37;101009.53;;;29.96;36.02
62508;BME280;48556;51.972;4.624;2022-08-16T17:58:08;101018.53;;;29.46;37.00
62508;BME280;48556;51.972;4.624;2022-08-16T18:04:10;100999.72;;;29.95;36.29
62508;BME280;48556;51.972;4.624;2022-08-16T18:20:23;101005.84;;;29.15;40.66
62508;BME280;48556;51.972;4.624;2022-08-16T18:23:33;101009.50;;;28.84;41.71
62508;BME280;48556;51.972;4.624;2022-08-16T18:26:19;101007.28;;;28.89;41.77
62508;BME280;48556;51.972;4.624;2022-08-16T18:28:47;101002.25;;;29.15;41.35
62508;BME280;48556;51.972;4.624;2022-08-16T18:31:47;101005.38;;;28.79;42.19
62508;BME280;48556;51.972;4.624;2022-08-16T18:34:17;101005.50;;;29.30;40.79
62508;BME280;48556;51.972;4.624;2022-08-16T18:37:01;101019.50;;;29.35;40.66
62508;BME280;48556;51.972;4.624;2022-08-16T18:40:07;101020.19;;;29.06;41.22
62508;BME280;48556;51.972;4.624;2022-08-16T18:46:09;101027.41;;;28.96;41.64
62508;BME280;48556;51.972;4.624;2022-08-16T19:06:18;101041.72;;;28.66;43.18
62508;BME280;48556;51.972;4.624;2022-08-16T19:09:02;101047.34;;;28.74;42.85
62508;BME280;48556;51.972;4.624;2022-08-16T19:11:28;101053.41;;;28.87;42.70
62508;BME280;48556;51.972;4.624;2022-08-16T19:13:57;101048.09;;;28.64;43.16
62508;BME280;48556;51.972;4.624;2022-08-16T19:26:56;101071.97;;;28.27;44.67
62508;BME280;48556;51.972;4.624;2022-08-16T19:33:31;101083.91;;;28.13;45.53
62508;BME280;48556;51.972;4.624;2022-08-16T19:37:00;101078.78;;;28.42;44.45
62508;BME280;48556;51.972;4.624;2022-08-16T19:39:28;101084.38;;;28.29;44.75
62508;BME280;48556;51.972;4.624;2022-08-16T19:42:07;101088.81;;;28.19;45.18
62508;BME280;48556;51.972;4.624;2022-08-16T19:45:06;101086.28;;;27.72;46.45
62508;BME280;48556;51.972;4.624;2022-08-16T19:47:37;101106.91;;;27.73;46.56
62508;BME280;48556;51.972;4.624;2022-08-16T19:50:30;101107.28;;;27.46;48.03
62508;BME280;48556;51.972;4.624;2022-08-16T19:53:35;101118.09;;;27.91;46.79
62508;BME280;48556;51.972;4.624;2022-08-16T19:56:00;101108.00;;;27.82;47.29
62508;BME280;48556;51.972;4.624;2022-08-16T19:58:36;101101.94;;;27.22;49.12
62508;BME280;48556;51.972;4.624;2022-08-16T20:01:03;101101.25;;;27.31;48.74
62508;BME280;48556;51.972;4.624;2022-08-16T20:03:29;101102.50;;;27.38;48.61
62508;BME280;48556;51.972;4.624;2022-08-16T20:06:10;101108.03;;;27.59;48.02
62508;BME280;48556;51.972;4.624;2022-08-16T20:08:36;101106.56;;;27.55;48.11
62508;BME280;48556;51.972;4.624;2022-08-16T20:11:07;101107.78;;;27.96;47.16
62508;BME280;48556;51.972;4.624;2022-08-16T20:13:41;101105.94;;;27.86;47.48
62508;BME280;48556;51.972;4.624;2022-08-16T20:16:08;101101.09;;;27.21;49.44
62508;BME280;48556;51.972;4.624;2022-08-16T20:18:37;101108.66;;;27.63;48.06
62508;BME280;48556;51.972;4.624;2022-08-16T20:31:15;101126.56;;;27.64;48.13
62508;BME280;48556;51.972;4.624;2022-08-16T20:33:43;101120.56;;;27.60;48.39
62508;BME280;48556;51.972;4.624;2022-08-16T20:36:09;101122.13;;;27.52;48.91
62508;BME280;48556;51.972;4.624;2022-08-16T20:38:58;101125.56;;;27.54;48.76
62508;BME280;48556;51.972;4.624;2022-08-16T20:41:27;101128.78;;;27.59;48.65
62508;BME280;48556;51.972;4.624;2022-08-16T20:44:02;101123.84;;;27.53;48.97
62508;BME280;48556;51.972;4.624;2022-08-16T20:46:32;101122.50;;;27.58;48.73
62508;BME280;48556;51.972;4.624;2022-08-16T20:52:44;101125.06;;;27.60;49.06
62508;BME280;48556;51.972;4.624;2022-08-16T20:55:11;101130.47;;;27.49;49.17
62508;BME280;48556;51.972;4.624;2022-08-16T20:57:36;101126.66;;;27.40;49.60
62508;BME280;48556;51.972;4.624;2022-08-16T21:00:06;101130.22;;;27.40;49.88
62508;BME280;48556;51.972;4.624;2022-08-16T21:03:35;101121.53;;;27.12;50.29
62508;BME280;48556;51.972;4.624;2022-08-16T21:06:10;101120.84;;;27.22;50.01
62508;BME280;48556;51.972;4.624;2022-08-16T21:08:39;101119.69;;;27.02;50.49
62508;BME280;48556;51.972;4.624;2022-08-16T21:11:15;101126.34;;;27.09;50.41
62508;BME280;48556;51.972;4.624;2022-08-16T21:14:26;101122.81;;;27.20;50.23
62508;BME280;48556;51.972;4.624;2022-08-16T21:17:30;101125.63;;;26.83;50.73
62508;BME280;48556;51.972;4.624;2022-08-16T21:20:19;101124.53;;;26.61;51.36
62508;BME280;48556;51.972;4.624;2022-08-16T21:23:15;101131.25;;;27.15;49.55
62508;BME280;48556;51.972;4.624;2022-08-16T21:25:43;101137.28;;;27.19;49.34
62508;BME280;48556;51.972;4.624;2022-08-16T23:22:20;101123.44;;;26.39;51.63
62508;BME280;48556;51.972;4.624;2022-08-16T23:24:49;101102.50;;;26.19;52.00
62508;BME280;48556;51.972;4.624;2022-08-16T23:27:15;101113.56;;;26.27;51.78
62508;BME280;48556;51.972;4.624;2022-08-16T23:29:50;101105.06;;;26.33;51.90
62508;BME280;48556;51.972;4.624;2022-08-16T23:32:16;101115.78;;;26.46;51.52
62508;BME280;48556;51.972;4.624;2022-08-16T23:34:48;101109.28;;;26.49;51.33
62508;BME280;48556;51.972;4.624;2022-08-16T23:37:18;101106.78;;;26.58;51.05
62508;BME280;48556;51.972;4.624;2022-08-16T23:39:47;101114.41;;;26.40;51.42
62508;BME280;48556;51.972;4.624;2022-08-16T23:42:20;101107.50;;;26.36;51.63
62508;BME280;48556;51.972;4.624;2022-08-16T23:44:52;101104.63;;;26.51;51.43
62508;BME280;48556;51.972;4.624;2022-08-16T23:47:20;101101.94;;;26.51;51.62
62508;BME280;48556;51.972;4.624;2022-08-16T23:49:47;101101.34;;;26.71;51.35
62508;BME280;48556;51.972;4.624;2022-08-16T23:52:18;101105.28;;;26.54;51.65
62508;BME280;48556;51.972;4.624;2022-08-16T23:54:47;101096.09;;;26.57;51.80
62508;BME280;48556;51.972;4.624;2022-08-16T23:57:16;101100.00;;;26.53;51.68
62508;BME280;48556;51.972;4.624;2022-08-16T23:59:53;101096.31;;;26.54;51.90
